(°C)
11°
11°
10°
10°
(°C)
ENE
ENE
NNE
NNE
NNE
NNE
NE
(km/h)
8-21
7-21
7-19
7-18
7-18
7-19
8-19
(mm)
0
0
0
0
0
0
0
(%)
65
62
59
56
50
43
37

Élévation du soleil

/ -3°
sun-icon
UV 2
06:16
20:26
Premier croissant (70°)
09:28
02:19

METAR pour Bordenau (ETNW)

Heure Conditions Température/
Point de rosée
Vent Visibilité Météo Nuages Pression Changement Brut
11°C / 8°C 100º 6kt 8000m - 1020 - ETNW 181820Z AUTO 10006KT 8000 // ////// 11/08 Q1020 ///
12°C / 8°C 110º 8kt 7000m - 1020 - ETNW 181720Z AUTO 11008KT 7000 // ////// 12/08 Q1020 ///
13°C / 8°C 110º 9kt 8000m - 1019 - ETNW 181620Z AUTO 11009KT 8000 // ////// 13/08 Q1019 ///
13°C / 9°C 40º 10kt Gust 20kt 8000m - 1019 - ETNW 181520Z AUTO 04010G20KT 8000 // ////// 13/09 Q1019 ///
16°C / 6°C 50º 4kt 8000m - 1019 - ETNW 181420Z AUTO 05004KT 8000 // ////// 16/06 Q1019 ///
15°C / 5°C 40º 7kt 8000m - 1020 - ETNW 181320Z AUTO 04007KT 8000 // ////// 15/05 Q1020 ///
15°C / 6°C 70º 6kt 8000m - 1020 - ETNW 181220Z AUTO 07006KT 8000 // ////// 15/06 Q1020 ///
14°C / 6°C 20º 5kt 7000m - 1020 - ETNW 181120Z AUTO 02005KT 7000 // ////// 14/06 Q1020 ///
12°C / 6°C 40º 5kt 7000m - 1021 - ETNW 181020Z AUTO 04005KT 7000 // ////// 12/06 Q1021 ///
11°C / 5°C 60º 2kt 8000m - 1021 - ETNW 180920Z AUTO 06002KT 8000 // ////// 11/05 Q1021 ///
9°C / 4°C 360º 1kt 7000m - 1021 - ETNW 180820Z AUTO 36001KT 7000 // ////// 09/04 Q1021 ///
8°C / 4°C 30º 2kt 7000m - 1021 - ETNW 180720Z AUTO 03002KT 7000 // ////// 08/04 Q1021 ///
7°C / 3°C 10º 2kt 7000m - 1021 - ETNW 180620Z AUTO 01002KT 7000 // ////// 07/03 Q1021 ///
6°C / 3°C 360º 3kt 7000m - 1021 - ETNW 180520Z AUTO 36003KT 7000 // ////// 06/03 Q1021 ///
6°C / 2°C 310º 2kt 8000m - 1021 - ETNW 180420Z AUTO 31002KT 8000 // ////// 06/02 Q1021 ///
5°C / 2°C 320º 2kt 8000m - 1021 - ETNW 180320Z AUTO 32002KT 8000 // ////// 05/02 Q1021 ///
5°C / 2°C 310º 4kt 8000m - 1021 - ETNW 180220Z AUTO 31004KT 8000 // ////// 05/02 Q1021 ///
5°C / 2°C 280º 4kt 8000m - 1021 - ETNW 180120Z AUTO 28004KT 8000 // ////// 05/02 Q1021 ///
6°C / 2°C 360º 2kt 8000m - 1021 - ETNW 180020Z AUTO 36002KT 8000 // ////// 06/02 Q1021 ///
7°C / 3°C 20º 4kt 8000m - 1022 - ETNW 172320Z AUTO 02004KT 8000 // ////// 07/03 Q1022 ///
8°C / 3°C 10º 4kt 8000m - 1022 - ETNW 172220Z AUTO 01004KT 8000 // ////// 08/03 Q1022 ///
9°C / 3°C 10º 5kt 8000m - 1022 - ETNW 172120Z AUTO 01005KT 8000 // ////// 09/03 Q1022 ///
10°C / 2°C 290º 4kt 8000m - 1022 - ETNW 172020Z AUTO 29004KT 8000 // ////// 10/02 Q1022 ///
11°C / 2°C 310º 3kt 8000m - 1022 - ETNW 171920Z AUTO 31003KT 8000 // ////// 11/02 Q1022 ///

11°C / 8°C

[Plus]
Vent 100º 6kt
Visibilité 8000m
Météo -
Nuages
Pression 1020
Changement -
Brut ETNW 181820Z AUTO 10006KT 8000 // ////// 11/08 Q1020 ///

12°C / 8°C

[Plus]
Vent 110º 8kt
Visibilité 7000m
Météo -
Nuages
Pression 1020
Changement -
Brut ETNW 181720Z AUTO 11008KT 7000 // ////// 12/08 Q1020 ///

13°C / 8°C

[Plus]
Vent 110º 9kt
Visibilité 8000m
Météo -
Nuages
Pression 1019
Changement -
Brut ETNW 181620Z AUTO 11009KT 8000 // ////// 13/08 Q1019 ///

13°C / 9°C

[Plus]
Vent 40º 10kt Gust 20kt
Visibilité 8000m
Météo -
Nuages
Pression 1019
Changement -
Brut ETNW 181520Z AUTO 04010G20KT 8000 // ////// 13/09 Q1019 ///

16°C / 6°C

[Plus]
Vent 50º 4kt
Visibilité 8000m
Météo -
Nuages
Pression 1019
Changement -
Brut ETNW 181420Z AUTO 05004KT 8000 // ////// 16/06 Q1019 ///

15°C / 5°C

[Plus]
Vent 40º 7kt
Visibilité 8000m
Météo -
Nuages
Pression 1020
Changement -
Brut ETNW 181320Z AUTO 04007KT 8000 // ////// 15/05 Q1020 ///

15°C / 6°C

[Plus]
Vent 70º 6kt
Visibilité 8000m
Météo -
Nuages
Pression 1020
Changement -
Brut ETNW 181220Z AUTO 07006KT 8000 // ////// 15/06 Q1020 ///

14°C / 6°C

[Plus]
Vent 20º 5kt
Visibilité 7000m
Météo -
Nuages
Pression 1020
Changement -
Brut ETNW 181120Z AUTO 02005KT 7000 // ////// 14/06 Q1020 ///

12°C / 6°C

[Plus]
Vent 40º 5kt
Visibilité 7000m
Météo -
Nuages
Pression 1021
Changement -
Brut ETNW 181020Z AUTO 04005KT 7000 // ////// 12/06 Q1021 ///

11°C / 5°C

[Plus]
Vent 60º 2kt
Visibilité 8000m
Météo -
Nuages
Pression 1021
Changement -
Brut ETNW 180920Z AUTO 06002KT 8000 // ////// 11/05 Q1021 ///

9°C / 4°C

[Plus]
Vent 360º 1kt
Visibilité 7000m
Météo -
Nuages
Pression 1021
Changement -
Brut ETNW 180820Z AUTO 36001KT 7000 // ////// 09/04 Q1021 ///

8°C / 4°C

[Plus]
Vent 30º 2kt
Visibilité 7000m
Météo -
Nuages
Pression 1021
Changement -
Brut ETNW 180720Z AUTO 03002KT 7000 // ////// 08/04 Q1021 ///

7°C / 3°C

[Plus]
Vent 10º 2kt
Visibilité 7000m
Météo -
Nuages
Pression 1021
Changement -
Brut ETNW 180620Z AUTO 01002KT 7000 // ////// 07/03 Q1021 ///

6°C / 3°C

[Plus]
Vent 360º 3kt
Visibilité 7000m
Météo -
Nuages
Pression 1021
Changement -
Brut ETNW 180520Z AUTO 36003KT 7000 // ////// 06/03 Q1021 ///

6°C / 2°C

[Plus]
Vent 310º 2kt
Visibilité 8000m
Météo -
Nuages
Pression 1021
Changement -
Brut ETNW 180420Z AUTO 31002KT 8000 // ////// 06/02 Q1021 ///

5°C / 2°C

[Plus]
Vent 320º 2kt
Visibilité 8000m
Météo -
Nuages
Pression 1021
Changement -
Brut ETNW 180320Z AUTO 32002KT 8000 // ////// 05/02 Q1021 ///

5°C / 2°C

[Plus]
Vent 310º 4kt
Visibilité 8000m
Météo -
Nuages
Pression 1021
Changement -
Brut ETNW 180220Z AUTO 31004KT 8000 // ////// 05/02 Q1021 ///

5°C / 2°C

[Plus]
Vent 280º 4kt
Visibilité 8000m
Météo -
Nuages
Pression 1021
Changement -
Brut ETNW 180120Z AUTO 28004KT 8000 // ////// 05/02 Q1021 ///

6°C / 2°C

[Plus]
Vent 360º 2kt
Visibilité 8000m
Météo -
Nuages
Pression 1021
Changement -
Brut ETNW 180020Z AUTO 36002KT 8000 // ////// 06/02 Q1021 ///

7°C / 3°C

[Plus]
Vent 20º 4kt
Visibilité 8000m
Météo -
Nuages
Pression 1022
Changement -
Brut ETNW 172320Z AUTO 02004KT 8000 // ////// 07/03 Q1022 ///

8°C / 3°C

[Plus]
Vent 10º 4kt
Visibilité 8000m
Météo -
Nuages
Pression 1022
Changement -
Brut ETNW 172220Z AUTO 01004KT 8000 // ////// 08/03 Q1022 ///

9°C / 3°C

[Plus]
Vent 10º 5kt
Visibilité 8000m
Météo -
Nuages
Pression 1022
Changement -
Brut ETNW 172120Z AUTO 01005KT 8000 // ////// 09/03 Q1022 ///

10°C / 2°C

[Plus]
Vent 290º 4kt
Visibilité 8000m
Météo -
Nuages
Pression 1022
Changement -
Brut ETNW 172020Z AUTO 29004KT 8000 // ////// 10/02 Q1022 ///

11°C / 2°C

[Plus]
Vent 310º 3kt
Visibilité 8000m
Météo -
Nuages
Pression 1022
Changement -
Brut ETNW 171920Z AUTO 31003KT 8000 // ////// 11/02 Q1022 ///

TAF pour Bordenau (ETNW)

From till


From till Wind 10º 10kt. Visibility 10km or more. Broken Clouds 8000ft. Broken Clouds 24000ft.

Brut: TAF ETNW 161659Z 1617/1717 01010KT 9999 NSW BKN080 BKN240 BY ETGL

Les images satellites et les pluies actuelles pour Bordenau, Allemagne

  • Précipitation:
  • <1 mm
  • 1-2 mm
  • 2-5 mm
  • >5 mm

Le marqueur de lieu est placé sur Bordenau. [Plus]

L'image satellite en temps réel combine la lumière visible pendant la journée et le rayonnement infrarouge pendant la nuit. La nuit, l'image n'est pas sombre car le rayonnement infrarouge permet de détecter les différences de température. Malheureusement, les nuages bas et le brouillard sont difficiles à distinguer des températures au sol et peuvent donc être presque invisibles pendant la nuit. Les images des satellites Météosat pour l'Europe sont mises à jour en temps réel toutes les 5 minutes. Les images GOES-16/GOES-17 (Amérique du Nord et du Sud) et Himawari (Asie) sont mises à jour toutes les 10 minutes.

La précipitation est estimée à partir des radars et des satellites. Les calculs des précipitations pour la nuit par le satellite sont moins précises que pour le jour. Les croix oranges marquent les lieux où la foudre a été détectée (sur Europe).

Copyright 2021 EUMETSAT / meteoblue. Données de foudre fournies par nowcast.

Radar pour Bordenau

Le marqueur de position est placé sur Bordenau. Cette animation montre le Radar des précipitations pour les dernières heures, ainsi qu'une 2h prévision. La bruine ou les légères chutes de neiges peuvent ne pas être détectées par le radar. L'intensité des précipitations est visible avec un code couleur allant du bleu clair au violet foncé.
Copyright 2021 Deutscher Wetterdienst / meteoblue.

Situation et avertissements actuels

EUMETNET – MeteoAlarm

pictomap

Source: DWD

Un temps de retard entre ce site et le www.meteoalarm.eu site est possible, pour une information la plus à jour pour les alertes tel que publiée par les services météorologiques nationaux y participants, utilisez svp www.meteoalarm.eu.